Time;durP1;ratioP1;P1;durP2;ratioP2;P2;SDS_P1;SDS_P2;PMS_P1;PMS_P2;Temp;Humidity;BMP_temperature;BMP_pressure;BME280_temperature;BME280_humidity;BME280_pressure;Samples;Min_cycle;Max_cycle;Signal;HPM_P1;HPM_P2
2022/11/25 00:01:20;;;;;;;21.40;15.77;;;9.80;99.90;;;;;;5052357;28;20060;-56
2022/11/25 00:03:47;;;;;;;21.55;15.30;;;9.90;99.90;;;;;;5050394;28;20042;-53
2022/11/25 00:06:15;;;;;;;19.80;14.95;;;9.80;99.90;;;;;;5052536;28;20497;-53
2022/11/25 00:08:42;;;;;;;19.17;13.48;;;9.90;99.90;;;;;;5052751;28;20132;-54
2022/11/25 00:11:09;;;;;;;19.55;14.65;;;9.90;99.90;;;;;;5052710;28;20029;-54
2022/11/25 00:13:35;;;;;;;20.00;15.15;;;9.90;99.90;;;;;;5051657;28;20067;-54
2022/11/25 00:16:12;;;;;;;19.73;14.55;;;9.80;99.90;;;;;;5052780;28;20033;-56
2022/11/25 00:18:38;;;;;;;19.90;15.82;;;9.80;99.90;;;;;;5032709;28;20118;-55
2022/11/25 00:21:12;;;;;;;19.63;15.77;;;9.70;99.90;;;;;;5032280;28;20045;-55
2022/11/25 00:23:38;;;;;;;20.35;14.93;;;9.70;99.90;;;;;;5032779;28;20040;-54
2022/11/25 00:26:12;;;;;;;20.80;15.32;;;9.60;99.90;;;;;;5071844;28;20032;-57
2022/11/25 00:28:39;;;;;;;20.05;15.63;;;9.50;99.90;;;;;;5072342;28;20078;-56
2022/11/25 00:31:22;;;;;;;20.20;16.00;;;9.50;99.90;;;;;;5072361;28;20461;-54
2022/11/25 00:33:48;;;;;;;21.90;15.18;;;9.50;99.90;;;;;;5055604;28;20060;-53
2022/11/25 00:36:19;;;;;;;21.70;15.40;;;9.50;99.90;;;;;;5072238;28;20028;-55
2022/11/25 00:38:45;;;;;;;19.27;14.98;;;9.50;99.90;;;;;;5072186;28;20400;-55
2022/11/25 00:46:41;;;;;;;16.40;12.27;;;9.30;99.90;;;;;;5072001;28;20094;-55
2022/11/25 00:49:07;;;;;;;21.08;14.25;;;9.20;99.90;;;;;;5078399;28;20502;-56
2022/11/25 00:51:33;;;;;;;20.02;13.95;;;9.10;99.90;;;;;;5058450;28;20040;-54
2022/11/25 00:53:59;;;;;;;19.55;14.32;;;9.10;99.90;;;;;;5058671;28;20077;-56
2022/11/25 00:56:24;;;;;;;17.10;12.60;;;9.00;99.90;;;;;;5094433;28;20379;-56
2022/11/25 00:58:52;;;;;;;18.17;13.73;;;9.00;99.90;;;;;;5094638;28;20098;-53
2022/11/25 01:01:18;;;;;;;17.80;12.98;;;9.00;99.90;;;;;;5094331;28;20471;-53
2022/11/25 01:03:43;;;;;;;19.83;15.10;;;8.90;99.90;;;;;;5094009;28;20020;-56
2022/11/25 01:06:10;;;;;;;16.17;11.88;;;9.00;99.90;;;;;;5094597;28;20024;-54
2022/11/25 01:08:37;;;;;;;19.27;13.55;;;8.90;99.90;;;;;;5093969;28;20028;-55
2022/11/25 01:11:05;;;;;;;15.88;11.50;;;9.00;99.90;;;;;;5093903;28;20028;-54
2022/11/25 01:13:32;;;;;;;14.82;11.27;;;9.00;99.90;;;;;;5094143;28;20039;-53
2022/11/25 01:16:01;;;;;;;14.13;10.82;;;9.00;99.90;;;;;;5093962;28;20061;-54
2022/11/25 01:18:27;;;;;;;15.98;11.55;;;9.00;99.90;;;;;;5093909;28;20032;-53
2022/11/25 01:20:53;;;;;;;15.63;11.32;;;8.90;99.90;;;;;;5093490;28;20073;-54
2022/11/25 01:23:19;;;;;;;15.85;10.75;;;9.00;99.90;;;;;;5093435;28;20020;-53
2022/11/25 01:25:44;;;;;;;12.25;9.75;;;8.90;99.90;;;;;;5093571;28;20032;-55
2022/11/25 01:28:10;;;;;;;17.70;10.85;;;8.90;99.90;;;;;;5108754;28;20119;-57
2022/11/25 01:30:36;;;;;;;13.73;11.18;;;9.00;99.90;;;;;;5093472;28;20051;-54
2022/11/25 01:33:01;;;;;;;14.80;11.07;;;8.90;99.90;;;;;;5093611;28;20031;-53
2022/11/25 01:35:27;;;;;;;13.25;9.75;;;9.00;99.90;;;;;;5093549;28;20032;-51
2022/11/25 01:37:53;;;;;;;13.15;9.95;;;9.00;99.90;;;;;;5093404;28;20028;-53
2022/11/25 01:40:18;;;;;;;12.88;9.25;;;8.90;99.90;;;;;;5093344;28;20089;-55
2022/11/25 01:42:47;;;;;;;18.50;13.60;;;8.90;99.90;;;;;;5093120;28;20116;-56
2022/11/25 01:45:36;;;;;;;15.05;11.30;;;8.80;99.90;;;;;;5091321;28;20032;-54
2022/11/25 01:48:13;;;;;;;13.30;9.68;;;8.80;99.90;;;;;;5093324;28;20891;-54
2022/11/25 01:50:40;;;;;;;15.70;10.38;;;8.80;99.90;;;;;;5093414;28;20073;-51
2022/11/25 01:53:08;;;;;;;15.45;13.00;;;8.90;99.90;;;;;;5093663;28;20024;-52
2022/11/25 01:55:37;;;;;;;22.15;17.38;;;9.00;99.90;;;;;;5093344;28;20028;-55
2022/11/25 01:58:10;;;;;;;18.55;14.43;;;9.10;99.90;;;;;;5093070;28;20032;-57
2022/11/25 02:00:37;;;;;;;18.15;13.32;;;9.00;99.90;;;;;;5093185;28;20455;-53
2022/11/25 02:03:04;;;;;;;15.23;11.90;;;9.00;99.90;;;;;;5090824;28;20086;-53
2022/11/25 02:05:48;;;;;;;12.77;10.10;;;9.10;99.90;;;;;;5069291;28;20435;-55
2022/11/25 02:08:15;;;;;;;11.43;9.15;;;9.10;99.90;;;;;;5070585;28;20060;-53
2022/11/25 02:10:43;;;;;;;12.55;9.45;;;9.10;99.90;;;;;;5075023;28;20440;-56
2022/11/25 02:13:10;;;;;;;13.30;9.02;;;9.00;99.90;;;;;;5090760;28;20044;-52
2022/11/25 02:15:35;;;;;;;12.60;10.05;;;9.10;99.90;;;;;;5090952;28;20035;-54
2022/11/25 02:18:01;;;;;;;11.73;9.40;;;9.00;99.90;;;;;;5056662;28;20036;-55
2022/11/25 02:20:27;;;;;;;10.38;8.68;;;9.10;99.90;;;;;;5090500;28;20036;-55
2022/11/25 02:23:25;;;;;;;12.45;8.60;;;9.10;99.90;;;;;;5090862;28;20036;-54
2022/11/25 02:25:51;;;;;;;11.45;8.65;;;9.00;99.90;;;;;;5090700;28;20421;-54
2022/11/25 02:28:21;;;;;;;12.70;8.57;;;9.10;99.90;;;;;;5090532;28;20044;-55
2022/11/25 02:30:47;;;;;;;10.20;8.38;;;9.10;99.90;;;;;;5073988;28;20055;-54
2022/11/25 02:33:14;;;;;;;12.88;8.20;;;9.10;99.90;;;;;;5087998;28;20036;-53
2022/11/25 02:35:42;;;;;;;10.65;8.50;;;9.10;99.90;;;;;;5093340;28;20052;-54
2022/11/25 02:38:16;;;;;;;9.95;7.97;;;9.10;99.90;;;;;;5096951;28;20081;-52
2022/11/25 02:41:10;;;;;;;11.55;8.32;;;9.10;99.90;;;;;;5096765;28;20043;-52
2022/11/25 02:43:36;;;;;;;9.60;7.55;;;9.10;99.90;;;;;;5096792;28;20032;-55
2022/11/25 02:46:03;;;;;;;12.13;7.93;;;9.10;99.90;;;;;;5097095;28;20027;-55
2022/11/25 02:48:33;;;;;;;11.32;8.23;;;9.00;99.90;;;;;;5112003;28;20032;-54
2022/11/25 02:50:59;;;;;;;10.27;8.23;;;9.00;99.90;;;;;;5096789;28;20028;-57
2022/11/25 02:53:25;;;;;;;9.52;7.32;;;8.90;99.90;;;;;;5111681;28;20066;-53
2022/11/25 02:55:51;;;;;;;11.20;8.73;;;8.70;99.90;;;;;;5096898;28;20020;-55
2022/11/25 02:58:17;;;;;;;10.00;7.78;;;8.80;99.90;;;;;;5096359;28;20028;-54
2022/11/25 03:00:44;;;;;;;9.52;7.43;;;8.80;99.90;;;;;;5096766;28;20131;-53
2022/11/25 03:03:10;;;;;;;10.38;7.78;;;8.80;99.90;;;;;;5096472;28;20020;-55
2022/11/25 03:05:36;;;;;;;10.68;8.60;;;8.80;99.90;;;;;;5096572;28;20032;-55
2022/11/25 03:08:02;;;;;;;11.00;8.18;;;8.80;99.90;;;;;;5111692;28;20036;-54
2022/11/25 03:10:28;;;;;;;9.98;7.78;;;8.80;99.90;;;;;;5111305;28;20500;-54
2022/11/25 03:12:53;;;;;;;12.13;8.23;;;8.70;99.90;;;;;;5096526;28;20103;-55
2022/11/25 03:15:19;;;;;;;10.82;7.57;;;8.70;99.90;;;;;;5095902;28;20106;-53
2022/11/25 03:17:45;;;;;;;9.07;7.35;;;8.70;99.90;;;;;;5096417;28;20028;-56
2022/11/25 03:20:14;;;;;;;9.13;7.68;;;8.80;99.90;;;;;;5096267;28;20476;-55
2022/11/25 03:22:41;;;;;;;8.25;6.03;;;8.70;99.90;;;;;;5094170;28;20032;-56
2022/11/25 03:25:08;;;;;;;9.68;7.78;;;8.60;99.90;;;;;;5111342;28;20476;-55
2022/11/25 03:27:35;;;;;;;8.73;7.63;;;8.60;99.90;;;;;;5096019;28;20028;-51
2022/11/25 03:30:01;;;;;;;9.77;7.40;;;8.70;99.90;;;;;;5096155;28;20028;-54
2022/11/25 03:32:26;;;;;;;10.63;7.57;;;8.80;99.90;;;;;;5096306;28;20367;-53
2022/11/25 03:34:52;;;;;;;11.52;8.20;;;8.80;99.90;;;;;;5096019;28;20081;-55
2022/11/25 03:37:18;;;;;;;9.20;7.38;;;8.90;99.90;;;;;;5095905;28;20468;-54
2022/11/25 03:39:44;;;;;;;10.25;7.30;;;8.90;99.90;;;;;;5093733;28;20036;-57
2022/11/25 03:42:10;;;;;;;8.50;6.60;;;8.90;99.90;;;;;;5059990;28;20090;-56
2022/11/25 03:44:36;;;;;;;9.63;7.32;;;8.90;99.90;;;;;;5110806;28;20032;-56
2022/11/25 03:47:01;;;;;;;10.48;6.97;;;8.90;99.90;;;;;;5110360;28;20109;-52
2022/11/25 03:49:27;;;;;;;9.95;7.28;;;8.90;99.90;;;;;;5095426;28;20028;-55
2022/11/25 03:51:53;;;;;;;10.55;7.22;;;8.90;99.90;;;;;;5095611;28;20540;-51
2022/11/25 03:54:19;;;;;;;9.40;7.22;;;8.90;99.90;;;;;;5093600;28;20439;-56
2022/11/25 03:56:44;;;;;;;10.77;7.38;;;8.80;99.90;;;;;;5095388;28;20020;-54
2022/11/25 03:59:10;;;;;;;10.35;7.80;;;8.80;99.90;;;;;;5095858;28;20025;-55
2022/11/25 04:01:36;;;;;;;9.75;7.70;;;8.80;99.90;;;;;;5095085;28;20518;-55
2022/11/25 04:04:02;;;;;;;10.02;7.47;;;8.80;99.90;;;;;;5095637;28;20059;-55
2022/11/25 04:06:28;;;;;;;13.23;8.32;;;8.70;99.90;;;;;;5093430;28;20071;-55
2022/11/25 04:08:53;;;;;;;10.90;7.80;;;8.70;99.90;;;;;;5093288;28;20383;-52
2022/11/25 04:11:19;;;;;;;14.23;7.82;;;8.70;99.90;;;;;;5095254;28;20039;-54
2022/11/25 04:13:45;;;;;;;14.38;7.80;;;8.60;99.90;;;;;;5093288;28;20037;-52
2022/11/25 04:16:25;;;;;;;10.00;7.63;;;8.70;99.90;;;;;;5086194;28;20059;-53
2022/11/25 04:18:51;;;;;;;9.90;7.00;;;8.70;99.90;;;;;;5093232;28;20396;-56
2022/11/25 04:21:16;;;;;;;11.57;7.65;;;8.60;99.90;;;;;;5094416;28;20036;-54
2022/11/25 04:23:42;;;;;;;10.40;7.05;;;8.60;99.90;;;;;;5093123;28;20044;-54
2022/11/25 04:26:08;;;;;;;11.20;7.25;;;8.60;99.90;;;;;;5094984;28;20024;-53
2022/11/25 04:28:33;;;;;;;13.80;8.38;;;8.70;99.90;;;;;;5094912;28;20032;-57
2022/11/25 04:30:59;;;;;;;8.93;7.22;;;8.70;99.90;;;;;;5095032;28;20024;-56
2022/11/25 04:33:25;;;;;;;9.48;7.57;;;8.70;99.90;;;;;;5094828;28;20034;-55
2022/11/25 04:35:50;;;;;;;9.73;7.68;;;8.70;99.90;;;;;;5094720;28;20093;-53
2022/11/25 04:38:16;;;;;;;8.95;6.60;;;8.70;99.90;;;;;;5092862;28;20036;-53
2022/11/25 04:40:42;;;;;;;9.80;6.75;;;8.70;99.90;;;;;;5095054;28;20040;-54
2022/11/25 04:43:09;;;;;;;8.93;6.53;;;8.80;99.90;;;;;;5095002;28;20028;-52
2022/11/25 04:45:34;;;;;;;11.38;7.97;;;8.70;99.90;;;;;;5094964;28;20032;-52
2022/11/25 04:48:00;;;;;;;8.38;6.47;;;8.70;99.90;;;;;;5092416;28;20063;-52
2022/11/25 04:50:26;;;;;;;9.88;7.53;;;8.70;99.90;;;;;;5109942;28;20039;-54
2022/11/25 04:52:52;;;;;;;8.95;6.80;;;8.60;99.90;;;;;;5095067;28;20055;-53
2022/11/25 04:55:17;;;;;;;9.68;7.53;;;8.60;99.90;;;;;;5094940;28;20052;-51
2022/11/25 04:57:43;;;;;;;9.73;7.20;;;8.60;99.90;;;;;;5094783;28;20024;-54
2022/11/25 05:00:09;;;;;;;11.25;8.57;;;8.60;99.90;;;;;;5093763;28;20418;-55
2022/11/25 05:02:35;;;;;;;9.73;7.70;;;8.60;99.90;;;;;;5094020;28;20052;-52
2022/11/25 05:05:01;;;;;;;8.52;7.53;;;8.50;99.90;;;;;;5094046;28;20180;-53
2022/11/25 05:07:27;;;;;;;13.60;7.88;;;8.50;99.90;;;;;;5094333;28;20020;-53
2022/11/25 05:09:53;;;;;;;11.55;9.48;;;8.60;99.90;;;;;;5094006;28;20030;-55
2022/11/25 05:12:22;;;;;;;11.38;8.98;;;8.50;99.90;;;;;;5091908;28;20071;-52
2022/11/25 05:14:48;;;;;;;12.57;8.48;;;8.50;99.90;;;;;;5071956;28;20588;-53
2022/11/25 05:17:17;;;;;;;15.25;8.68;;;8.50;99.90;;;;;;5053354;28;20042;-55
2022/11/25 05:19:44;;;;;;;13.27;8.50;;;8.50;99.90;;;;;;5049173;28;20037;-55
2022/11/25 05:22:13;;;;;;;9.35;7.32;;;8.50;99.90;;;;;;5046453;28;20041;-55
2022/11/25 05:24:39;;;;;;;13.95;7.97;;;8.50;99.90;;;;;;5048501;28;20575;-52
2022/11/25 05:27:05;;;;;;;9.75;7.47;;;8.50;99.90;;;;;;5044392;28;20116;-53
2022/11/25 05:29:31;;;;;;;8.60;7.07;;;8.40;99.90;;;;;;5047160;28;20024;-57
2022/11/25 05:31:57;;;;;;;9.88;7.60;;;8.40;99.90;;;;;;5047165;28;20055;-54
2022/11/25 05:34:22;;;;;;;9.27;6.80;;;8.40;99.90;;;;;;5051329;28;20045;-57
2022/11/25 05:36:48;;;;;;;9.57;6.00;;;8.50;99.90;;;;;;5032186;28;20401;-57
2022/11/25 05:39:14;;;;;;;10.38;7.25;;;8.50;99.90;;;;;;5048176;28;20033;-52
2022/11/25 05:41:40;;;;;;;11.65;7.65;;;8.40;99.90;;;;;;5045576;28;20456;-57
2022/11/25 05:44:05;;;;;;;13.57;7.00;;;8.40;99.90;;;;;;5050979;28;20069;-54
2022/11/25 05:46:31;;;;;;;16.08;7.18;;;8.40;99.90;;;;;;5046588;28;20044;-51
2022/11/25 05:48:57;;;;;;;13.43;7.70;;;8.40;99.90;;;;;;5031707;28;20056;-51
2022/11/25 05:51:24;;;;;;;9.05;6.50;;;8.10;99.90;;;;;;5068903;28;20290;-55
2022/11/25 05:53:50;;;;;;;8.70;5.90;;;8.40;99.90;;;;;;5089867;28;20024;-53
2022/11/25 05:56:16;;;;;;;10.60;7.65;;;8.40;99.90;;;;;;5088625;28;20039;-54
2022/11/25 05:58:42;;;;;;;9.85;6.78;;;8.30;99.90;;;;;;5084611;28;20032;-56
2022/11/25 06:01:10;;;;;;;12.10;7.00;;;8.30;99.90;;;;;;5080927;28;20032;-55
2022/11/25 06:03:36;;;;;;;8.98;6.70;;;8.40;99.90;;;;;;5086426;28;20032;-52
2022/11/25 06:06:03;;;;;;;15.98;6.90;;;8.40;99.90;;;;;;5051809;28;20040;-54
2022/11/25 06:08:29;;;;;;;18.40;8.10;;;8.40;99.90;;;;;;5085565;28;20024;-53
2022/11/25 06:10:55;;;;;;;12.13;7.85;;;8.40;99.90;;;;;;5082962;28;20028;-55
2022/11/25 06:13:21;;;;;;;10.50;7.50;;;8.50;99.90;;;;;;5087421;28;20371;-51
2022/11/25 06:15:47;;;;;;;39.15;24.55;;;8.50;99.90;;;;;;5091057;28;20383;-57
2022/11/25 06:18:15;;;;;;;73.32;48.67;;;8.60;99.90;;;;;;5087913;28;20032;-52
2022/11/25 06:20:41;;;;;;;58.13;39.15;;;8.70;99.90;;;;;;5088745;28;20050;-49
2022/11/25 06:23:07;;;;;;;29.27;23.70;;;8.60;99.90;;;;;;5087459;28;20042;-50
2022/11/25 06:25:33;;;;;;;12.75;10.27;;;10.20;99.90;;;;;;5084260;28;20085;-49
2022/11/25 06:28:01;;;;;;;12.40;9.15;;;;;;;;;;5086954;28;20082;-51
2022/11/25 06:30:27;;;;;;;20.58;9.05;;;12.00;99.90;;;;;;5084822;28;20033;-52
2022/11/25 06:32:53;;;;;;;45.58;24.95;;;13.90;99.90;;;;;;5081673;28;20149;-50
2022/11/25 06:35:19;;;;;;;36.42;27.38;;;15.00;99.90;;;;;;5088312;28;20049;-49
2022/11/25 06:37:45;;;;;;;11.13;7.45;;;15.10;99.90;;;;;;5084810;28;20086;-49
2022/11/25 06:40:11;;;;;;;15.15;9.93;;;;;;;;;;5088334;28;20132;-50
2022/11/25 06:42:38;;;;;;;12.48;10.90;;;14.00;99.90;;;;;;5079166;28;20032;-49
2022/11/25 06:45:05;;;;;;;14.57;10.50;;;;;;;;;;5055444;28;20081;-49
2022/11/25 06:47:31;;;;;;;16.50;11.15;;;;;;;;;;5081957;28;20060;-49
2022/11/25 06:49:56;;;;;;;16.80;10.48;;;12.20;99.90;;;;;;5069148;28;20078;-49
2022/11/25 06:52:22;;;;;;;12.13;9.10;;;11.80;99.90;;;;;;5035288;28;20044;-50
2022/11/25 06:54:49;;;;;;;11.13;8.93;;;;;;;;;;5052166;28;20048;-48
2022/11/25 06:57:17;;;;;;;12.77;9.55;;;11.30;99.90;;;;;;5052241;28;20129;-50
2022/11/25 06:59:43;;;;;;;15.13;9.80;;;;;;;;;;5073471;28;20032;-50
2022/11/25 07:02:11;;;;;;;16.90;13.30;;;10.90;99.90;;;;;;5071865;28;20040;-49
2022/11/25 07:04:37;;;;;;;14.60;11.82;;;10.70;99.90;;;;;;5068965;28;20043;-50
2022/11/25 07:07:03;;;;;;;18.35;13.70;;;10.60;99.90;;;;;;5052533;28;20032;-49
2022/11/25 07:09:29;;;;;;;12.07;9.90;;;10.50;99.90;;;;;;5071295;28;20036;-50
2022/11/25 07:11:55;;;;;;;15.43;11.73;;;10.50;99.90;;;;;;5085897;28;20025;-49
2022/11/25 07:14:21;;;;;;;16.02;10.90;;;10.40;99.90;;;;;;5089365;28;20047;-49
2022/11/25 07:16:47;;;;;;;12.90;10.40;;;10.30;99.90;;;;;;5091410;28;20029;-48
2022/11/25 07:19:16;;;;;;;15.40;8.95;;;10.30;99.90;;;;;;5106212;28;20068;-48
2022/11/25 07:21:44;;;;;;;14.07;9.80;;;10.40;99.90;;;;;;5092107;28;20111;-49
2022/11/25 07:24:15;;;;;;;12.35;8.48;;;10.40;99.90;;;;;;5095043;28;20035;-50
2022/11/25 07:26:42;;;;;;;15.43;9.13;;;10.40;99.90;;;;;;5095099;28;20039;-49
2022/11/25 07:29:11;;;;;;;13.02;8.00;;;10.40;99.90;;;;;;5095288;28;20082;-49
2022/11/25 07:31:40;;;;;;;12.35;8.75;;;10.30;99.90;;;;;;5109823;28;20079;-50
2022/11/25 07:34:12;;;;;;;12.10;8.43;;;10.40;99.90;;;;;;5095067;28;20028;-48
2022/11/25 07:36:38;;;;;;;12.13;8.77;;;10.30;99.90;;;;;;5095336;28;20020;-49
2022/11/25 07:39:07;;;;;;;10.90;7.90;;;10.20;99.90;;;;;;5095001;28;20024;-48
2022/11/25 07:41:33;;;;;;;14.50;8.95;;;10.30;99.90;;;;;;5094684;28;20181;-48
2022/11/25 07:44:02;;;;;;;13.57;9.35;;;10.30;99.90;;;;;;5092491;28;20510;-48
2022/11/25 07:46:36;;;;;;;13.82;8.98;;;10.30;99.90;;;;;;5109473;28;20089;-50
2022/11/25 07:49:08;;;;;;;13.25;8.85;;;10.10;99.90;;;;;;5109693;28;20497;-49
2022/11/25 07:51:37;;;;;;;14.35;9.43;;;10.30;99.90;;;;;;5095038;28;20086;-48
2022/11/25 07:54:05;;;;;;;12.68;8.48;;;10.40;99.90;;;;;;5094574;28;20506;-50
2022/11/25 07:56:34;;;;;;;11.55;8.30;;;10.40;99.90;;;;;;5094195;28;20031;-48
2022/11/25 07:59:01;;;;;;;14.00;9.00;;;10.30;99.90;;;;;;5094207;28;20041;-50
2022/11/25 08:01:27;;;;;;;9.05;7.40;;;10.10;99.90;;;;;;5101675;28;20070;-49
2022/11/25 08:03:53;;;;;;;25.05;19.35;;;10.20;99.90;;;;;;5073998;28;20505;-49
2022/11/25 08:06:21;;;;;;;18.20;13.52;;;10.30;99.90;;;;;;5074045;28;20067;-51
2022/11/25 08:08:47;;;;;;;11.65;8.32;;;10.20;99.90;;;;;;5074023;28;20028;-49
2022/11/25 08:11:19;;;;;;;13.18;10.45;;;10.30;99.90;;;;;;5079894;28;20063;-50
2022/11/25 08:13:45;;;;;;;11.85;8.15;;;10.40;99.90;;;;;;5090556;28;20032;-51
2022/11/25 08:16:13;;;;;;;12.50;9.57;;;10.20;99.90;;;;;;5107261;28;20438;-51
2022/11/25 08:18:39;;;;;;;18.40;11.85;;;10.30;99.90;;;;;;5081957;28;20039;-51
2022/11/25 08:21:08;;;;;;;12.38;9.75;;;10.40;99.90;;;;;;5080400;28;20040;-51
2022/11/25 08:23:35;;;;;;;11.70;8.43;;;10.50;99.90;;;;;;5082038;28;20483;-50
2022/11/25 08:26:16;;;;;;;66.20;43.97;;;10.50;99.90;;;;;;5076554;28;20028;-49
2022/11/25 08:28:42;;;;;;;15.85;10.50;;;10.40;99.90;;;;;;5032828;28;20475;-51
2022/11/25 08:31:15;;;;;;;11.70;8.82;;;10.70;99.90;;;;;;5044214;28;20038;-52
2022/11/25 08:33:42;;;;;;;19.95;15.38;;;10.50;99.90;;;;;;5053015;28;20041;-53
2022/11/25 08:36:09;;;;;;;13.48;9.45;;;10.70;99.90;;;;;;5068253;28;20045;-53
2022/11/25 08:38:35;;;;;;;14.57;8.27;;;10.60;99.90;;;;;;5063678;28;20059;-54
2022/11/25 08:41:01;;;;;;;12.95;8.98;;;10.70;99.90;;;;;;5054804;28;20106;-54
2022/11/25 08:43:28;;;;;;;14.65;10.27;;;10.80;99.90;;;;;;5068990;28;20463;-54
2022/11/25 08:45:53;;;;;;;12.82;8.65;;;10.90;99.90;;;;;;5066720;28;20037;-49
2022/11/25 08:48:20;;;;;;;12.48;8.35;;;11.20;99.90;;;;;;5050972;28;20459;-52
2022/11/25 08:50:50;;;;;;;13.60;9.27;;;11.20;99.90;;;;;;5055388;28;20033;-54
2022/11/25 08:53:16;;;;;;;11.90;8.65;;;11.40;99.90;;;;;;5050664;28;20040;-50
2022/11/25 08:55:42;;;;;;;11.80;8.88;;;;;;;;;;5062380;28;20115;-49
2022/11/25 08:58:10;;;;;;;13.45;10.98;;;11.80;99.90;;;;;;5050143;28;20038;-51
2022/11/25 09:00:40;;;;;;;11.68;8.02;;;;;;;;;;5067626;28;20048;-53
2022/11/25 09:03:06;;;;;;;11.80;8.90;;;13.20;99.90;;;;;;5072917;28;20020;-51
2022/11/25 09:16:15;;;;;;;14.13;7.53;;;14.40;99.90;;;;;;5062836;28;20909;-54
2022/11/25 09:18:41;;;;;;;11.20;7.95;;;14.90;99.90;;;;;;5072607;28;20094;-55
2022/11/25 09:21:11;;;;;;;12.77;8.05;;;14.80;99.90;;;;;;5058941;28;20082;-54
2022/11/25 09:23:38;;;;;;;11.02;7.80;;;14.30;99.90;;;;;;5057715;28;20527;-50
2022/11/25 09:26:05;;;;;;;12.38;11.05;;;14.30;99.90;;;;;;5054142;28;20035;-49
2022/11/25 09:28:31;;;;;;;12.95;10.93;;;16.80;99.90;;;;;;5058943;28;20462;-51
2022/11/25 09:30:56;;;;;;;9.27;8.30;;;18.40;99.90;;;;;;5055624;28;20667;-58
2022/11/25 09:33:22;;;;;;;7.43;6.30;;;19.40;99.90;;;;;;5059617;28;20036;-56
2022/11/25 09:35:49;;;;;;;11.63;8.20;;;19.90;99.90;;;;;;5061170;28;20124;-54
2022/11/25 09:38:15;;;;;;;10.52;7.25;;;19.00;99.90;;;;;;5058250;28;20033;-54
2022/11/25 09:40:54;;;;;;;8.63;7.72;;;18.10;99.90;;;;;;5054782;28;20028;-56
2022/11/25 09:49:13;;;;;;;14.63;13.05;;;20.40;99.90;;;;;;5053477;28;20047;-56
2022/11/25 09:52:00;;;;;;;316.80;127.53;;;20.80;94.90;;;;;;5048953;28;20480;-54
2022/11/25 09:54:31;;;;;;;13.15;11.88;;;20.50;95.00;;;;;;5046275;28;20544;-51
2022/11/25 09:57:23;;;;;;;16.77;12.57;;;21.00;95.80;;;;;;5047781;28;20032;-57
2022/11/25 10:00:01;;;;;;;9.98;5.43;;;21.50;94.60;;;;;;5049361;28;20045;-54
2022/11/25 10:02:41;;;;;;;14.57;8.93;;;20.70;93.40;;;;;;5048979;28;20086;-62
2022/11/25 10:05:12;;;;;;;8.00;5.75;;;20.00;93.90;;;;;;5028210;28;20033;-51
2022/11/25 10:07:45;;;;;;;10.98;8.25;;;19.10;94.00;;;;;;5055523;28;20044;-52
2022/11/25 10:10:26;;;;;;;11.75;8.02;;;18.50;94.80;;;;;;5054834;28;20500;-49
2022/11/25 10:12:55;;;;;;;10.05;7.45;;;17.90;95.70;;;;;;5055003;28;20059;-49
2022/11/25 10:15:26;;;;;;;11.63;6.90;;;17.40;95.80;;;;;;5052462;28;20045;-50
2022/11/25 10:17:56;;;;;;;12.27;8.38;;;16.70;97.00;;;;;;5036032;28;20504;-51
2022/11/25 10:20:33;;;;;;;9.93;6.97;;;16.00;98.00;;;;;;5056593;28;20380;-45
2022/11/25 10:23:30;;;;;;;8.95;6.18;;;15.70;99.10;;;;;;5056052;28;20091;-49
2022/11/25 10:26:09;;;;;;;12.02;7.07;;;14.90;99.80;;;;;;5040626;28;20064;-52
2022/11/25 10:28:36;;;;;;;8.55;6.15;;;14.70;99.90;;;;;;5042747;28;21745;-55
2022/11/25 10:31:09;;;;;;;11.55;7.47;;;14.10;99.90;;;;;;5031950;28;20053;-52
2022/11/25 10:33:46;;;;;;;14.80;8.85;;;13.90;99.90;;;;;;5032183;28;20389;-56
2022/11/25 10:36:29;;;;;;;11.63;8.05;;;13.60;99.90;;;;;;5032921;28;20084;-59
2022/11/25 10:39:10;;;;;;;10.57;7.90;;;13.70;99.90;;;;;;5026369;28;20030;-58
2022/11/25 10:41:51;;;;;;;12.95;9.43;;;13.60;99.90;;;;;;5030875;28;20037;-53
2022/11/25 10:44:29;;;;;;;16.40;8.85;;;13.70;99.90;;;;;;5029302;28;20087;-54
2022/11/25 10:47:13;;;;;;;8.93;6.80;;;13.70;99.90;;;;;;5024237;28;20488;-53
2022/11/25 10:49:56;;;;;;;17.02;9.63;;;13.90;99.90;;;;;;5016843;28;20026;-56
2022/11/25 10:52:23;;;;;;;75.05;40.40;;;14.10;99.90;;;;;;5023760;28;20533;-53
2022/11/25 10:55:15;;;;;;;50.40;33.08;;;14.20;99.90;;;;;;5023792;28;20038;-57
2022/11/25 10:57:42;;;;;;;14.90;9.60;;;14.50;99.90;;;;;;5022143;28;20044;-61
2022/11/25 11:00:23;;;;;;;14.07;9.05;;;;;;;;;;5023926;28;20026;-54
2022/11/25 11:02:49;;;;;;;11.83;6.17;;;14.70;99.90;;;;;;5056252;28;20044;-54
2022/11/25 11:05:28;;;;;;;8.15;6.00;;;14.60;99.90;;;;;;5062152;28;20297;-49
2022/11/25 11:08:15;;;;;;;9.63;6.32;;;14.40;99.90;;;;;;5060643;28;20071;-50
2022/11/25 11:10:41;;;;;;;8.55;7.15;;;15.30;99.90;;;;;;5061090;28;20040;-51
2022/11/25 11:13:31;;;;;;;10.20;5.97;;;16.70;99.90;;;;;;5054011;28;20033;-51
2022/11/25 11:15:58;;;;;;;9.70;4.53;;;16.70;99.90;;;;;;5060195;28;20175;-52
2022/11/25 11:18:39;;;;;;;11.15;8.23;;;16.30;99.90;;;;;;5063421;28;20039;-53
2022/11/25 11:21:07;;;;;;;11.55;6.38;;;17.10;99.90;;;;;;5061982;28;20118;-52
2022/11/25 11:23:52;;;;;;;8.50;6.47;;;17.40;99.90;;;;;;5057223;28;20028;-56
2022/11/25 11:26:26;;;;;;;12.77;4.28;;;18.40;99.80;;;;;;5057281;28;20098;-52
2022/11/25 11:29:13;;;;;;;7.85;5.47;;;17.30;99.30;;;;;;5062859;28;20119;-55
2022/11/25 11:31:45;;;;;;;12.77;7.97;;;18.40;99.90;;;;;;5063237;28;20157;-50
2022/11/25 11:34:38;;;;;;;19.85;13.40;;;18.10;98.50;;;;;;5068112;28;20121;-56
2022/11/25 11:37:28;;;;;;;22.83;14.52;;;16.60;99.20;;;;;;5067800;28;20040;-62
2022/11/25 11:40:16;;;;;;;20.35;13.05;;;16.70;99.60;;;;;;5051915;28;20037;-53
2022/11/25 11:42:54;;;;;;;6.88;5.25;;;16.90;99.00;;;;;;5023364;28;20040;-56
2022/11/25 11:45:23;;;;;;;9.65;7.63;;;17.90;99.80;;;;;;5019824;28;20042;-58
2022/11/25 11:48:14;;;;;;;9.43;6.43;;;18.60;98.30;;;;;;5021316;28;20105;-58
2022/11/25 11:50:43;;;;;;;8.43;5.25;;;;;;;;;;5022815;28;20054;-56
2022/11/25 11:53:56;;;;;;;10.73;5.60;;;20.10;99.90;;;;;;5020048;28;20038;-58
2022/11/25 11:56:29;;;;;;;9.80;6.38;;;18.90;96.70;;;;;;5020315;28;20048;-58
2022/11/25 11:59:08;;;;;;;5.47;3.95;;;19.00;97.60;;;;;;5023284;28;20038;-58
2022/11/25 12:01:57;;;;;;;8.10;6.20;;;18.30;96.70;;;;;;5026384;28;20052;-59
2022/11/25 12:04:40;;;;;;;5.85;3.60;;;19.00;98.10;;;;;;5022531;28;20091;-55
2022/11/25 12:07:33;;;;;;;10.15;6.68;;;19.30;96.30;;;;;;4983298;28;20527;-59
2022/11/25 12:10:25;;;;;;;8.75;6.55;;;19.20;95.90;;;;;;4967651;28;20038;-59
2022/11/25 12:13:25;;;;;;;16.70;10.15;;;18.70;97.50;;;;;;4952397;29;20046;-53
2022/11/25 12:15:56;;;;;;;6.25;5.25;;;18.50;97.70;;;;;;4868712;29;20052;-55
2022/11/25 12:18:58;;;;;;;13.57;11.52;;;17.60;97.90;;;;;;4900809;29;20500;-52
2022/11/25 12:21:39;;;;;;;;;;;17.90;99.40;;;;;;4900714;29;20490;-53
2022/11/25 12:24:42;;;;;;;7.90;5.30;;;17.40;98.70;;;;;;4895004;29;20279;-55
2022/11/25 12:27:19;;;;;;;10.90;7.13;;;16.90;98.60;;;;;;4899316;29;20036;-53
2022/11/25 12:29:56;;;;;;;8.35;6.00;;;17.00;99.40;;;;;;4894703;29;20044;-54
2022/11/25 12:32:36;;;;;;;10.05;6.68;;;17.40;98.80;;;;;;4867615;29;20129;-51
2022/11/25 12:35:04;;;;;;;12.98;8.20;;;17.50;99.00;;;;;;4889274;29;20041;-52
2022/11/25 12:37:37;;;;;;;19.15;13.63;;;17.60;99.00;;;;;;4850325;29;20101;-52
2022/11/25 12:40:08;;;;;;;9.35;6.05;;;17.90;98.70;;;;;;4857831;29;20033;-51
2022/11/25 12:42:38;;;;;;;8.85;5.13;;;17.70;98.00;;;;;;4858125;29;20120;-51
2022/11/25 12:45:17;;;;;;;6.68;4.13;;;18.10;97.90;;;;;;4858631;29;20041;-53
2022/11/25 12:47:43;;;;;;;8.70;4.50;;;18.60;97.50;;;;;;4895006;29;20119;-50
2022/11/25 12:50:24;;;;;;;5.35;3.65;;;18.40;96.90;;;;;;4956067;28;20054;-50
2022/11/25 12:52:59;;;;;;;7.95;4.13;;;18.80;97.30;;;;;;4967843;28;20128;-53
2022/11/25 12:55:27;;;;;;;6.88;4.60;;;18.40;96.90;;;;;;5000654;28;20486;-51
2022/11/25 12:58:30;;;;;;;8.50;4.20;;;17.80;97.10;;;;;;5002232;28;20045;-51
2022/11/25 13:01:19;;;;;;;8.73;5.18;;;17.60;98.20;;;;;;5000857;28;20049;-49
2022/11/25 13:04:00;;;;;;;11.95;5.72;;;;;;;;;;4992710;28;20046;-52
2022/11/25 13:06:37;;;;;;;9.37;5.70;;;;;;;;;;5002436;28;20421;-53
2022/11/25 13:09:03;;;;;;;7.50;5.32;;;;;;;;;;5002301;28;20480;-55
2022/11/25 13:11:55;;;;;;;17.63;8.70;;;16.60;99.90;;;;;;5002072;28;20026;-51
2022/11/25 13:14:29;;;;;;;7.80;5.30;;;17.10;98.60;;;;;;4983696;28;20057;-52
2022/11/25 13:16:56;;;;;;;5.38;3.72;;;17.40;98.00;;;;;;5006396;28;20056;-56
2022/11/25 13:19:23;;;;;;;5.90;3.88;;;17.90;97.70;;;;;;4999830;28;20041;-49
2022/11/25 13:22:00;;;;;;;4.90;3.55;;;17.20;96.80;;;;;;4998780;28;20041;-51
2022/11/25 13:24:40;;;;;;;5.43;3.92;;;16.90;97.30;;;;;;5044470;28;20060;-50